createdAt,value
2018-01-21T00:01:19.014Z,1004.97
2018-01-21T00:02:41.142Z,1004.94
2018-01-21T00:04:03.264Z,1004.99
2018-01-21T00:05:25.402Z,1004.98
2018-01-21T00:06:47.557Z,1004.98
2018-01-21T00:08:09.813Z,1005.03
2018-01-21T00:09:31.965Z,1005.05
2018-01-21T00:10:54.141Z,1005.02
2018-01-21T00:12:15.981Z,1005.02
2018-01-21T00:13:37.970Z,1005.03
2018-01-21T00:14:59.872Z,1005.06
2018-01-21T00:16:22.003Z,1005.06
2018-01-21T00:17:43.976Z,1005.1
2018-01-21T00:19:05.920Z,1005.09
2018-01-21T00:20:28.104Z,1005.12
2018-01-21T00:21:50.362Z,1005.06
2018-01-21T00:23:12.239Z,1005.05
2018-01-21T00:24:33.893Z,1005.14
2018-01-21T00:25:55.513Z,1005.17
2018-01-21T00:27:17.492Z,1005.16
2018-01-21T00:28:39.361Z,1005.15
2018-01-21T00:30:01.332Z,1005.17
2018-01-21T00:31:22.801Z,1005.2
2018-01-21T00:32:44.910Z,1005.25
2018-01-21T00:34:06.532Z,1005.25
2018-01-21T00:35:28.414Z,1005.32
2018-01-21T00:36:50.571Z,1005.26
2018-01-21T00:38:12.432Z,1005.32
2018-01-21T00:39:34.311Z,1005.35
2018-01-21T00:40:56.221Z,1005.33
2018-01-21T00:42:18.415Z,1005.41
2018-01-21T00:43:40.399Z,1005.42
2018-01-21T00:45:02.017Z,1005.38
2018-01-21T00:46:23.349Z,1005.43
2018-01-21T00:47:45.282Z,1005.46
2018-01-21T00:49:07.130Z,1005.47
2018-01-21T00:50:28.737Z,1005.51
2018-01-21T00:51:50.630Z,1005.5
2018-01-21T00:53:12.391Z,1005.52
2018-01-21T00:54:34.044Z,1005.55
2018-01-21T00:55:56.000Z,1005.58
2018-01-21T00:57:17.581Z,1005.63
2018-01-21T00:58:39.177Z,1005.62
2018-01-21T01:00:01.281Z,1005.68
2018-01-21T01:01:23.514Z,1005.68
2018-01-21T01:02:45.405Z,1005.63
2018-01-21T01:04:07.305Z,1005.69
2018-01-21T01:05:29.132Z,1005.7
2018-01-21T01:06:50.492Z,1005.75
2018-01-21T01:08:12.375Z,1005.78
2018-01-21T01:09:33.951Z,1005.79
2018-01-21T01:10:55.902Z,1005.79
2018-01-21T01:12:17.770Z,1005.82
2018-01-21T01:13:39.756Z,1005.83
2018-01-21T01:15:01.441Z,1005.88
2018-01-21T01:16:23.375Z,1005.91
2018-01-21T01:17:45.241Z,1005.95
2018-01-21T01:19:07.641Z,1005.94
2018-01-21T01:20:29.752Z,1006.01
2018-01-21T01:21:51.675Z,1006.04
2018-01-21T01:23:13.833Z,1006.05
2018-01-21T01:24:35.702Z,1006.04
2018-01-21T01:25:57.638Z,1006.08
2018-01-21T01:27:18.957Z,1006.13
2018-01-21T01:28:40.821Z,1006.18
2018-01-21T01:30:02.802Z,1006.25
2018-01-21T01:31:24.986Z,1006.23
2018-01-21T01:32:46.833Z,1006.3
2018-01-21T01:34:08.728Z,1006.33
2018-01-21T01:35:30.582Z,1006.37
2018-01-21T01:36:52.490Z,1006.37
2018-01-21T01:38:14.452Z,1006.42
2018-01-21T01:39:36.523Z,1006.44
2018-01-21T01:40:58.425Z,1006.46
2018-01-21T01:42:20.392Z,1006.51
2018-01-21T01:43:41.981Z,1006.51
2018-01-21T01:45:03.823Z,1006.51
2018-01-21T01:46:25.760Z,1006.54
2018-01-21T01:47:47.624Z,1006.53
2018-01-21T01:49:09.232Z,1006.57
2018-01-21T01:50:31.059Z,1006.57
2018-01-21T01:51:52.646Z,1006.6
2018-01-21T01:53:14.386Z,1006.59
2018-01-21T01:54:35.764Z,1006.61
2018-01-21T01:55:57.443Z,1006.64
2018-01-21T01:57:19.372Z,1006.65
2018-01-21T01:58:41.272Z,1006.64
2018-01-21T02:00:03.435Z,1006.66
2018-01-21T02:01:25.041Z,1006.64
2018-01-21T02:02:47.453Z,1006.74
2018-01-21T02:04:08.562Z,1006.75
2018-01-21T02:05:30.402Z,1006.74
2018-01-21T02:06:51.994Z,1006.74
2018-01-21T02:08:13.339Z,1006.76
2018-01-21T02:09:35.199Z,1006.8
2018-01-21T02:10:57.069Z,1006.83
2018-01-21T02:12:18.965Z,1006.89
2018-01-21T02:13:41.092Z,1006.89
2018-01-21T02:15:02.682Z,1006.91
2018-01-21T02:16:24.552Z,1006.9
2018-01-21T02:17:46.709Z,1006.89
2018-01-21T02:19:08.438Z,1006.93
2018-01-21T02:20:30.559Z,1006.94
2018-01-21T02:21:52.689Z,1006.95
2018-01-21T02:23:14.882Z,1006.97
2018-01-21T02:24:36.520Z,1006.95
2018-01-21T02:25:58.722Z,1007.03
2018-01-21T02:27:20.361Z,1007.02
2018-01-21T02:28:42.204Z,1007.01
2018-01-21T02:30:04.351Z,1007.02
2018-01-21T02:31:26.253Z,1007.08
2018-01-21T02:32:48.105Z,1007.1
2018-01-21T02:34:10.234Z,1007.08
2018-01-21T02:35:32.116Z,1007.05
2018-01-21T02:36:54.236Z,1007.08
2018-01-21T02:38:16.188Z,1007.14
2018-01-21T02:39:37.532Z,1007.17
2018-01-21T02:40:58.868Z,1007.16
2018-01-21T02:42:20.723Z,1007.19
2018-01-21T02:43:42.582Z,1007.18
2018-01-21T02:45:04.162Z,1007.2
2018-01-21T02:46:26.033Z,1007.18
2018-01-21T02:47:47.965Z,1007.2
2018-01-21T02:49:10.097Z,1007.24
2018-01-21T02:50:31.697Z,1007.22
2018-01-21T02:51:53.310Z,1007.27
2018-01-21T02:53:15.430Z,1007.31
2018-01-21T02:54:37.050Z,1007.3
2018-01-21T02:55:59.161Z,1007.35
2018-01-21T02:57:21.353Z,1007.34
2018-01-21T02:58:42.932Z,1007.34
2018-01-21T03:00:04.559Z,1007.38
2018-01-21T03:01:26.723Z,1007.38
2018-01-21T03:02:48.853Z,1007.42
2018-01-21T03:04:10.762Z,1007.43
2018-01-21T03:05:32.402Z,1007.48
2018-01-21T03:06:54.343Z,1007.52
2018-01-21T03:08:15.674Z,1007.53
2018-01-21T03:09:37.603Z,1007.54
2018-01-21T03:10:59.185Z,1007.6
2018-01-21T03:12:21.539Z,1007.58
2018-01-21T03:13:43.405Z,1007.65
2018-01-21T03:15:05.632Z,1007.72
2018-01-21T03:16:27.484Z,1007.69
2018-01-21T03:17:49.580Z,1007.75
2018-01-21T03:19:11.957Z,1007.77
2018-01-21T03:20:33.716Z,1007.77
2018-01-21T03:21:55.161Z,1007.79
2018-01-21T03:23:17.033Z,1007.79
2018-01-21T03:24:38.917Z,1007.86
2018-01-21T03:26:01.122Z,1007.89
2018-01-21T03:27:22.729Z,1007.9
2018-01-21T03:28:44.322Z,1007.95
2018-01-21T03:30:06.194Z,1007.97
2018-01-21T03:31:28.103Z,1008
2018-01-21T03:32:50.109Z,1008.03
2018-01-21T03:34:11.732Z,1008.06
2018-01-21T03:35:33.607Z,1008.07
2018-01-21T03:36:55.201Z,1008.14
2018-01-21T03:38:17.294Z,1008.15
2018-01-21T03:39:38.895Z,1008.17
2018-01-21T03:41:00.489Z,1008.2
2018-01-21T03:42:22.582Z,1008.23
2018-01-21T03:43:44.333Z,1008.3
2018-01-21T03:45:06.343Z,1008.27
2018-01-21T03:46:28.360Z,1008.34
2018-01-21T03:47:49.694Z,1008.4
2018-01-21T03:49:11.383Z,1008.44
2018-01-21T03:50:33.301Z,1008.44
2018-01-21T03:51:55.301Z,1008.49
2018-01-21T03:53:16.913Z,1008.47
2018-01-21T03:54:38.251Z,1008.47
2018-01-21T03:56:00.386Z,1008.51
2018-01-21T03:57:22.511Z,1008.52
2018-01-21T03:58:44.108Z,1008.54
2018-01-21T04:00:05.444Z,1008.57
2018-01-21T04:01:27.309Z,1008.59
2018-01-21T04:02:49.203Z,1008.57
2018-01-21T04:04:10.745Z,1008.61
2018-01-21T04:05:32.598Z,1008.69
2018-01-21T04:06:54.022Z,1008.71
2018-01-21T04:08:15.343Z,1008.74
2018-01-21T04:09:37.504Z,1008.74
2018-01-21T04:10:59.668Z,1008.77
2018-01-21T04:12:21.552Z,1008.78
2018-01-21T04:13:42.874Z,1008.81
2018-01-21T04:15:05.032Z,1008.85
2018-01-21T04:16:26.905Z,1008.88
2018-01-21T04:17:49.033Z,1008.93
2018-01-21T04:19:11.238Z,1008.93
2018-01-21T04:20:32.822Z,1008.92
2018-01-21T04:21:54.987Z,1008.91
2018-01-21T04:23:16.613Z,1008.94
2018-01-21T04:24:38.309Z,1009
2018-01-21T04:25:59.895Z,1009
2018-01-21T04:27:21.843Z,1009.02
2018-01-21T04:28:43.423Z,1009.04
2018-01-21T04:30:05.038Z,1009.04
2018-01-21T04:31:26.374Z,1009.14
2018-01-21T04:32:47.795Z,1009.13
2018-01-21T04:34:09.268Z,1009.19
2018-01-21T04:35:31.341Z,1009.18
2018-01-21T04:36:52.931Z,1009.19
2018-01-21T04:38:14.544Z,1009.19
2018-01-21T04:39:35.904Z,1009.22
2018-01-21T04:40:57.372Z,1009.25
2018-01-21T04:42:18.872Z,1009.28
2018-01-21T04:43:40.733Z,1009.29
2018-01-21T04:45:02.604Z,1009.33
2018-01-21T04:46:24.534Z,1009.35
2018-01-21T04:47:46.372Z,1009.36
2018-01-21T04:49:07.718Z,1009.4
2018-01-21T04:50:29.632Z,1009.39
2018-01-21T04:51:50.975Z,1009.39
2018-01-21T04:53:12.913Z,1009.46
2018-01-21T04:54:34.533Z,1009.53
2018-01-21T04:55:56.162Z,1009.55
2018-01-21T04:57:18.149Z,1009.57
2018-01-21T04:58:39.750Z,1009.54
2018-01-21T05:00:01.673Z,1009.54
2018-01-21T05:01:23.276Z,1009.56
2018-01-21T05:02:44.867Z,1009.57
2018-01-21T05:04:06.813Z,1009.65
2018-01-21T05:05:28.164Z,1009.63
2018-01-21T05:06:49.922Z,1009.65
2018-01-21T05:08:12.028Z,1009.65
2018-01-21T05:09:34.152Z,1009.66
2018-01-21T05:10:56.090Z,1009.69
2018-01-21T05:12:17.769Z,1009.7
2018-01-21T05:13:39.460Z,1009.75
2018-01-21T05:15:01.572Z,1009.73
2018-01-21T05:16:23.275Z,1009.8
2018-01-21T05:17:45.134Z,1009.77
2018-01-21T05:19:06.902Z,1009.84
2018-01-21T05:20:28.498Z,1009.88
2018-01-21T05:21:50.340Z,1009.91
2018-01-21T05:23:11.680Z,1009.91
2018-01-21T05:24:33.324Z,1009.92
2018-01-21T05:25:55.541Z,1009.95
2018-01-21T05:27:17.687Z,1010
2018-01-21T05:28:39.355Z,1010.03
2018-01-21T05:30:01.500Z,1010.03
2018-01-21T05:31:23.104Z,1010.04
2018-01-21T05:32:45.000Z,1010.06
2018-01-21T05:34:06.838Z,1010.06
2018-01-21T05:35:28.445Z,1010.14
2018-01-21T05:36:50.143Z,1010.12
2018-01-21T05:38:11.757Z,1010.17
2018-01-21T05:39:33.634Z,1010.17
2018-01-21T05:40:55.235Z,1010.19
2018-01-21T05:42:17.391Z,1010.16
2018-01-21T05:43:39.330Z,1010.21
2018-01-21T05:45:00.954Z,1010.21
2018-01-21T05:46:22.634Z,1010.21
2018-01-21T05:47:44.223Z,1010.24
2018-01-21T05:49:05.684Z,1010.2
2018-01-21T05:50:27.916Z,1010.17
2018-01-21T05:51:50.143Z,1010.21
2018-01-21T05:53:12.262Z,1010.24
2018-01-21T05:54:33.633Z,1010.17
2018-01-21T05:55:55.498Z,1010.19
2018-01-21T05:57:17.908Z,1010.17
2018-01-21T05:58:39.771Z,1010.29
2018-01-21T06:00:01.623Z,1010.26
2018-01-21T06:01:23.224Z,1010.31
2018-01-21T06:02:45.179Z,1010.37
2018-01-21T06:04:07.068Z,1010.42
2018-01-21T06:05:28.610Z,1010.44
2018-01-21T06:06:50.224Z,1010.47
2018-01-21T06:08:11.893Z,1010.48
2018-01-21T06:09:33.274Z,1010.52
2018-01-21T06:10:55.514Z,1010.56
2018-01-21T06:12:16.834Z,1010.61
2018-01-21T06:13:38.856Z,1010.69
2018-01-21T06:15:00.456Z,1010.71
2018-01-21T06:16:22.664Z,1010.73
2018-01-21T06:17:44.304Z,1010.7
2018-01-21T06:19:05.916Z,1010.75
2018-01-21T06:20:27.849Z,1010.79
2018-01-21T06:21:49.527Z,1010.79
2018-01-21T06:23:11.208Z,1010.8
2018-01-21T06:24:33.328Z,1010.82
2018-01-21T06:25:55.442Z,1010.86
2018-01-21T06:27:17.044Z,1010.87
2018-01-21T06:28:38.474Z,1010.91
2018-01-21T06:30:00.088Z,1010.93
2018-01-21T06:31:21.832Z,1010.95
2018-01-21T06:32:43.697Z,1011
2018-01-21T06:34:05.039Z,1011.04
2018-01-21T06:35:27.156Z,1011.08
2018-01-21T06:36:49.096Z,1011.12
2018-01-21T06:38:11.022Z,1011.14
2018-01-21T06:39:32.631Z,1011.16
2018-01-21T06:40:53.982Z,1011.21
2018-01-21T06:42:15.573Z,1011.26
2018-01-21T06:43:37.166Z,1011.3
2018-01-21T06:44:58.773Z,1011.31
2018-01-21T06:46:20.144Z,1011.35
2018-01-21T06:47:42.134Z,1011.39
2018-01-21T06:49:03.715Z,1011.39
2018-01-21T06:50:25.393Z,1011.46
2018-01-21T06:51:47.011Z,1011.48
2018-01-21T06:53:08.424Z,1011.46
2018-01-21T06:54:30.398Z,1011.49
2018-01-21T06:55:52.669Z,1011.55
2018-01-21T06:57:14.054Z,1011.57
2018-01-21T06:58:35.637Z,1011.6
2018-01-21T06:59:57.473Z,1011.64
2018-01-21T07:01:18.843Z,1011.65
2018-01-21T07:02:40.703Z,1011.67
2018-01-21T07:04:02.313Z,1011.71
2018-01-21T07:05:23.893Z,1011.68
2018-01-21T07:06:45.232Z,1011.74
2018-01-21T07:08:06.563Z,1011.72
2018-01-21T07:09:28.441Z,1011.75
2018-01-21T07:10:50.383Z,1011.79
2018-01-21T07:12:12.508Z,1011.84
2018-01-21T07:13:33.896Z,1011.86
2018-01-21T07:14:55.289Z,1011.87
2018-01-21T07:16:16.870Z,1011.95
2018-01-21T07:17:38.764Z,1012.01
2018-01-21T07:19:00.383Z,1012.02
2018-01-21T07:20:22.491Z,1012.04
2018-01-21T07:21:44.100Z,1012.06
2018-01-21T07:23:06.212Z,1012.09
2018-01-21T07:24:27.816Z,1012.18
2018-01-21T07:25:49.683Z,1012.22
2018-01-21T07:27:11.541Z,1012.28
2018-01-21T07:28:33.434Z,1012.29
2018-01-21T07:29:55.564Z,1012.35
2018-01-21T07:31:17.413Z,1012.39
2018-01-21T07:32:39.292Z,1012.43
2018-01-21T07:34:01.204Z,1012.47
2018-01-21T07:35:23.207Z,1012.5
2018-01-21T07:36:45.096Z,1012.54
2018-01-21T07:38:06.946Z,1012.59
2018-01-21T07:39:29.206Z,1012.62
2018-01-21T07:40:51.085Z,1012.66
2018-01-21T07:42:12.943Z,1012.65
2018-01-21T07:43:35.179Z,1012.7
2018-01-21T07:44:57.317Z,1012.72
2018-01-21T07:46:19.249Z,1012.75
2018-01-21T07:47:41.541Z,1012.74
2018-01-21T07:49:03.132Z,1012.8
2018-01-21T07:50:24.723Z,1012.83
2018-01-21T07:51:46.943Z,1012.84
2018-01-21T07:53:08.827Z,1012.87
2018-01-21T07:54:30.737Z,1012.86
2018-01-21T07:55:52.394Z,1012.88
2018-01-21T07:57:14.755Z,1012.96
2018-01-21T07:58:36.174Z,1012.98
2018-01-21T07:59:57.853Z,1013.02
2018-01-21T08:01:19.188Z,1013.06
2018-01-21T08:02:41.048Z,1013.06
2018-01-21T08:04:02.925Z,1013.13
2018-01-21T08:05:25.045Z,1013.13
2018-01-21T08:06:47.353Z,1013.14
2018-01-21T08:08:09.253Z,1013.14
2018-01-21T08:09:31.132Z,1013.12
2018-01-21T08:10:52.543Z,1013.16
2018-01-21T08:12:14.384Z,1013.19
2018-01-21T08:13:36.252Z,1013.25
2018-01-21T08:14:58.106Z,1013.26
2018-01-21T08:16:20.068Z,1013.31
2018-01-21T08:17:42.199Z,1013.3
2018-01-21T08:19:03.802Z,1013.33
2018-01-21T08:20:25.696Z,1013.36
2018-01-21T08:21:47.842Z,1013.4
2018-01-21T08:23:09.704Z,1013.34
2018-01-21T08:24:31.570Z,1013.36
2018-01-21T08:25:53.456Z,1013.41
2018-01-21T08:27:15.334Z,1013.44
2018-01-21T08:28:36.949Z,1013.48
2018-01-21T08:29:59.074Z,1013.5
2018-01-21T08:31:20.688Z,1013.52
2018-01-21T08:32:42.535Z,1013.59
2018-01-21T08:34:04.627Z,1013.63
2018-01-21T08:35:26.255Z,1013.65
2018-01-21T08:36:47.874Z,1013.67
2018-01-21T08:38:09.776Z,1013.66
2018-01-21T08:39:31.639Z,1013.69
2018-01-21T08:40:52.775Z,1013.71
2018-01-21T08:42:14.937Z,1013.72
2018-01-21T08:43:38.536Z,1013.74
2018-01-21T08:45:00.145Z,1013.68
2018-01-21T08:46:22.011Z,1013.74
2018-01-21T08:47:44.233Z,1013.79
2018-01-21T08:49:06.368Z,1013.79
2018-01-21T08:50:27.982Z,1013.81
2018-01-21T08:51:49.572Z,1013.82
2018-01-21T08:53:11.695Z,1013.82
2018-01-21T08:54:33.346Z,1013.85
2018-01-21T08:55:55.283Z,1013.94
2018-01-21T08:57:17.250Z,1013.93
2018-01-21T08:58:39.466Z,1013.98
2018-01-21T09:00:01.196Z,1014.01
2018-01-21T09:01:23.063Z,1013.99
2018-01-21T09:02:44.942Z,1014.01
2018-01-21T09:04:07.023Z,1014.05
2018-01-21T09:05:28.906Z,1014.09
2018-01-21T09:06:50.776Z,1014.08
2018-01-21T09:08:12.976Z,1014.08
2018-01-21T09:09:34.949Z,1014.06
2018-01-21T09:10:57.208Z,1014.14
2018-01-21T09:12:18.862Z,1014.11
2018-01-21T09:13:40.895Z,1014.12
2018-01-21T09:15:02.874Z,1014.11
2018-01-21T09:16:25.128Z,1014.13
2018-01-21T09:17:47.214Z,1014.16
2018-01-21T09:19:09.357Z,1014.15
2018-01-21T09:20:30.973Z,1014.22
2018-01-21T09:21:53.275Z,1014.23
2018-01-21T09:23:15.149Z,1014.26
2018-01-21T09:24:37.332Z,1014.29
2018-01-21T09:25:59.184Z,1014.33
2018-01-21T09:27:21.354Z,1014.34
2018-01-21T09:28:42.447Z,1014.38
2018-01-21T09:30:04.107Z,1014.4
2018-01-21T09:31:26.355Z,1014.47
2018-01-21T09:32:48.347Z,1014.5
2018-01-21T09:34:10.535Z,1014.48
2018-01-21T09:35:32.680Z,1014.51
2018-01-21T09:36:54.594Z,1014.51
2018-01-21T09:38:16.739Z,1014.52
2018-01-21T09:39:38.719Z,1014.54
2018-01-21T09:41:01.161Z,1014.55
2018-01-21T09:42:23.304Z,1014.58
2018-01-21T09:43:45.284Z,1014.62
2018-01-21T09:45:07.292Z,1014.65
2018-01-21T09:46:29.486Z,1014.7
2018-01-21T09:47:51.545Z,1014.7
2018-01-21T09:49:13.574Z,1014.7
2018-01-21T09:50:35.533Z,1014.74
2018-01-21T09:51:57.422Z,1014.75
2018-01-21T09:53:19.574Z,1014.8
2018-01-21T09:54:41.457Z,1014.84
2018-01-21T09:56:03.588Z,1014.84
2018-01-21T09:57:24.969Z,1014.84
2018-01-21T09:58:47.261Z,1014.85
2018-01-21T10:00:08.646Z,1014.87
2018-01-21T10:01:30.795Z,1014.9
2018-01-21T10:02:52.744Z,1014.97
2018-01-21T10:04:14.369Z,1015.01
2018-01-21T10:05:36.374Z,1015.1
2018-01-21T10:06:58.559Z,1015.08
2018-01-21T10:08:20.835Z,1015.1
2018-01-21T10:09:42.728Z,1015.16
2018-01-21T10:11:04.878Z,1015.2
2018-01-21T10:12:27.135Z,1015.25
2018-01-21T10:13:48.807Z,1015.27
2018-01-21T10:15:10.933Z,1015.26
2018-01-21T10:16:32.526Z,1015.28
2018-01-21T10:17:54.475Z,1015.26
2018-01-21T10:19:16.624Z,1015.32
2018-01-21T10:20:38.056Z,1015.35
2018-01-21T10:22:00.219Z,1015.39
2018-01-21T10:23:22.368Z,1015.37
2018-01-21T10:24:44.367Z,1015.38
2018-01-21T10:26:06.572Z,1015.4
2018-01-21T10:27:28.628Z,1015.39
2018-01-21T10:28:50.798Z,1015.39
2018-01-21T10:30:12.965Z,1015.39
2018-01-21T10:31:35.136Z,1015.46
2018-01-21T10:32:57.492Z,1015.46
2018-01-21T10:34:19.520Z,1015.47
2018-01-21T10:35:41.706Z,1015.5
2018-01-21T10:37:03.412Z,1015.5
2018-01-21T10:38:25.553Z,1015.56
2018-01-21T10:39:47.060Z,1015.66
2018-01-21T10:41:08.942Z,1015.65
2018-01-21T10:42:31.283Z,1015.63
2018-01-21T10:43:53.426Z,1015.68
2018-01-21T10:45:15.066Z,1015.71
2018-01-21T10:46:36.963Z,1015.72
2018-01-21T10:47:58.321Z,1015.7
2018-01-21T10:49:19.952Z,1015.69
2018-01-21T10:50:41.676Z,1015.68
2018-01-21T10:52:03.885Z,1015.68
2018-01-21T10:53:25.815Z,1015.68
2018-01-21T10:54:48.093Z,1015.66
2018-01-21T10:56:09.980Z,1015.72
2018-01-21T10:57:32.155Z,1015.72
2018-01-21T10:58:54.144Z,1015.74
2018-01-21T11:00:16.081Z,1015.74
2018-01-21T11:01:37.745Z,1015.73
2018-01-21T11:02:59.387Z,1015.78
2018-01-21T11:04:21.326Z,1015.79
2018-01-21T11:05:43.013Z,1015.79
2018-01-21T11:07:04.918Z,1015.78
2018-01-21T11:08:26.825Z,1015.78
2018-01-21T11:09:48.735Z,1015.81
2018-01-21T11:11:10.645Z,1015.84
2018-01-21T11:12:32.535Z,1015.9
2018-01-21T11:13:54.226Z,1015.87
2018-01-21T11:15:16.139Z,1015.88
2018-01-21T11:16:37.785Z,1015.83
2018-01-21T11:17:59.694Z,1015.85
2018-01-21T11:19:21.329Z,1015.87
2018-01-21T11:20:43.476Z,1015.9
2018-01-21T11:22:05.356Z,1015.98
2018-01-21T11:23:27.515Z,1016
2018-01-21T11:24:49.183Z,1016.07
2018-01-21T11:26:11.343Z,1016.03
2018-01-21T11:27:33.227Z,1016.09
2018-01-21T11:28:54.846Z,1016.12
2018-01-21T11:30:16.848Z,1016.14
2018-01-21T11:31:38.994Z,1016.1
2018-01-21T11:33:00.956Z,1016.09
2018-01-21T11:34:22.574Z,1016.17
2018-01-21T11:35:44.794Z,1016.14
2018-01-21T11:37:06.722Z,1016.12
2018-01-21T11:38:28.722Z,1016.13
2018-01-21T11:39:50.959Z,1016.16
2018-01-21T11:41:12.857Z,1016.11
2018-01-21T11:42:35.049Z,1016.1
2018-01-21T11:43:57.227Z,1016.12
2018-01-21T11:45:19.093Z,1016.06
2018-01-21T11:46:41.288Z,1016.06
2018-01-21T11:48:03.207Z,1016.03
2018-01-21T11:49:24.857Z,1016.01
2018-01-21T11:50:46.744Z,1016.03
2018-01-21T11:52:08.949Z,1016.05
2018-01-21T11:53:31.126Z,1016.03
2018-01-21T11:54:52.743Z,1016
2018-01-21T11:56:14.867Z,1016.04
2018-01-21T11:57:36.997Z,1016.01
2018-01-21T11:58:59.175Z,1016
2018-01-21T12:00:20.806Z,1016.06
2018-01-21T12:01:43.078Z,1016.02
2018-01-21T12:03:05.245Z,1016.04
2018-01-21T12:04:27.427Z,1016.06
2018-01-21T12:05:49.718Z,1016.07
2018-01-21T12:07:11.911Z,1016.08
2018-01-21T12:08:34.068Z,1016.13
2018-01-21T12:09:55.691Z,1016.12
2018-01-21T12:11:17.842Z,1016.18
2018-01-21T12:12:40.126Z,1016.13
2018-01-21T12:14:02.328Z,1016.2
2018-01-21T12:15:24.428Z,1016.2
2018-01-21T12:16:46.343Z,1016.23
2018-01-21T12:18:08.129Z,1016.21
2018-01-21T12:19:30.300Z,1016.17
2018-01-21T12:20:52.254Z,1016.2
2018-01-21T12:22:14.444Z,1016.18
2018-01-21T12:23:36.638Z,1016.16
2018-01-21T12:24:58.626Z,1016.17
2018-01-21T12:26:20.317Z,1016.2
2018-01-21T12:27:42.549Z,1016.2
2018-01-21T12:29:04.827Z,1016.18
2018-01-21T12:30:27.003Z,1016.17
2018-01-21T12:31:48.919Z,1016.25
2018-01-21T12:33:10.902Z,1016.3
2018-01-21T12:34:32.601Z,1016.31
2018-01-21T12:35:54.347Z,1016.32
2018-01-21T12:37:15.989Z,1016.37
2018-01-21T12:38:38.176Z,1016.34
2018-01-21T12:40:00.328Z,1016.32
2018-01-21T12:41:22.249Z,1016.34
2018-01-21T12:42:43.900Z,1016.34
2018-01-21T12:44:05.851Z,1016.37
2018-01-21T12:45:27.469Z,1016.38
2018-01-21T12:46:49.481Z,1016.4
2018-01-21T12:48:11.104Z,1016.48
2018-01-21T12:49:32.988Z,1016.48
2018-01-21T12:50:55.266Z,1016.5
2018-01-21T12:52:16.883Z,1016.52
2018-01-21T12:53:38.260Z,1016.5
2018-01-21T12:55:00.164Z,1016.53
2018-01-21T12:56:22.097Z,1016.57
2018-01-21T12:57:43.739Z,1016.59
2018-01-21T12:59:05.958Z,1016.63
2018-01-21T13:00:28.145Z,1016.61
2018-01-21T13:01:50.314Z,1016.6
2018-01-21T13:03:12.495Z,1016.61
2018-01-21T13:04:34.664Z,1016.64
2018-01-21T13:05:56.703Z,1016.64
2018-01-21T13:07:18.455Z,1016.65
2018-01-21T13:08:40.952Z,1016.68
2018-01-21T13:10:03.291Z,1016.71
2018-01-21T13:11:25.314Z,1016.69
2018-01-21T13:12:47.505Z,1016.75
2018-01-21T13:14:09.803Z,1016.73
2018-01-21T13:15:32.056Z,1016.75
2018-01-21T13:16:54.176Z,1016.71
2018-01-21T13:18:16.073Z,1016.73
2018-01-21T13:19:38.146Z,1016.74
2018-01-21T13:21:00.464Z,1016.77
2018-01-21T13:22:22.744Z,1016.74
2018-01-21T13:23:44.745Z,1016.74
2018-01-21T13:25:06.922Z,1016.74
2018-01-21T13:26:28.567Z,1016.75
2018-01-21T13:27:50.877Z,1016.8
2018-01-21T13:29:12.498Z,1016.8
2018-01-21T13:30:34.664Z,1016.85
2018-01-21T13:31:56.816Z,1016.89
2018-01-21T13:33:18.959Z,1016.84
2018-01-21T13:34:40.925Z,1016.9
2018-01-21T13:36:02.828Z,1016.91
2018-01-21T13:37:24.799Z,1016.88
2018-01-21T13:38:46.960Z,1016.86
2018-01-21T13:40:09.082Z,1016.86
2018-01-21T13:41:31.468Z,1016.88
2018-01-21T13:42:53.633Z,1016.87
2018-01-21T13:44:15.565Z,1016.9
2018-01-21T13:45:37.454Z,1016.91
2018-01-21T13:46:59.363Z,1016.97
2018-01-21T13:48:21.583Z,1016.97
2018-01-21T13:49:44.134Z,1017.02
2018-01-21T13:51:06.262Z,1017
2018-01-21T13:52:28.474Z,1017.01
2018-01-21T13:53:50.646Z,1016.98
2018-01-21T13:55:13.031Z,1017
2018-01-21T13:56:34.971Z,1017.03
2018-01-21T13:57:57.183Z,1017.04
2018-01-21T13:59:19.135Z,1017.07
2018-01-21T14:00:41.316Z,1017.07
2018-01-21T14:02:03.474Z,1017.12
2018-01-21T14:03:25.379Z,1017.1
2018-01-21T14:04:47.030Z,1017.16
2018-01-21T14:06:09.305Z,1017.12
2018-01-21T14:07:31.515Z,1017.19
2018-01-21T14:08:53.695Z,1017.22
2018-01-21T14:10:15.879Z,1017.21
2018-01-21T14:11:37.873Z,1017.26
2018-01-21T14:12:59.494Z,1017.3
2018-01-21T14:14:21.386Z,1017.33
2018-01-21T14:15:43.536Z,1017.33
2018-01-21T14:17:05.767Z,1017.28
2018-01-21T14:18:27.690Z,1017.28
2018-01-21T14:19:49.577Z,1017.29
2018-01-21T14:21:11.812Z,1017.27
2018-01-21T14:22:33.760Z,1017.3
2018-01-21T14:23:55.989Z,1017.34
2018-01-21T14:25:17.919Z,1017.32
2018-01-21T14:26:40.091Z,1017.35
2018-01-21T14:28:02.255Z,1017.33
2018-01-21T14:29:24.434Z,1017.35
2018-01-21T14:30:46.314Z,1017.38
2018-01-21T14:32:07.952Z,1017.37
2018-01-21T14:33:30.161Z,1017.41
2018-01-21T14:34:52.520Z,1017.37
2018-01-21T14:36:14.726Z,1017.39
2018-01-21T14:37:36.885Z,1017.4
2018-01-21T14:38:59.266Z,1017.39
2018-01-21T14:40:21.443Z,1017.41
2018-01-21T14:41:43.475Z,1017.46
2018-01-21T14:43:05.797Z,1017.47
2018-01-21T14:44:27.748Z,1017.45
2018-01-21T14:45:49.788Z,1017.46
2018-01-21T14:47:11.997Z,1017.51
2018-01-21T14:48:34.355Z,1017.48
2018-01-21T14:49:56.532Z,1017.5
2018-01-21T14:51:18.757Z,1017.48
2018-01-21T14:52:40.994Z,1017.51
2018-01-21T14:54:03.158Z,1017.58
2018-01-21T14:55:25.466Z,1017.58
2018-01-21T14:56:47.647Z,1017.58
2018-01-21T14:58:09.754Z,1017.65
2018-01-21T14:59:31.897Z,1017.65
2018-01-21T15:00:53.948Z,1017.65
2018-01-21T15:02:16.141Z,1017.7
2018-01-21T15:03:37.650Z,1017.72
2018-01-21T15:04:59.923Z,1017.76
2018-01-21T15:06:21.886Z,1017.73
2018-01-21T15:07:44.053Z,1017.76
2018-01-21T15:09:06.024Z,1017.79
2018-01-21T15:10:27.761Z,1017.82
2018-01-21T15:11:49.924Z,1017.81
2018-01-21T15:13:11.584Z,1017.86
2018-01-21T15:14:33.812Z,1017.89
2018-01-21T15:15:56.028Z,1017.87
2018-01-21T15:17:18.286Z,1017.85
2018-01-21T15:18:40.605Z,1017.85
2018-01-21T15:20:02.300Z,1017.8
2018-01-21T15:21:24.630Z,1017.77
2018-01-21T15:22:46.853Z,1017.79
2018-01-21T15:24:08.347Z,1017.84
2018-01-21T15:25:30.627Z,1017.84
2018-01-21T15:26:53.002Z,1017.87
2018-01-21T15:28:14.914Z,1017.88
2018-01-21T15:29:37.169Z,1017.91
2018-01-21T15:30:59.184Z,1017.84
2018-01-21T15:32:21.614Z,1017.83
2018-01-21T15:33:43.695Z,1017.82
2018-01-21T15:35:05.513Z,1017.77
2018-01-21T15:36:27.476Z,1017.75
2018-01-21T15:37:49.636Z,1017.71
2018-01-21T15:39:11.842Z,1017.72
2018-01-21T15:40:33.574Z,1017.76
2018-01-21T15:41:56.007Z,1017.74
2018-01-21T15:43:17.932Z,1017.69
2018-01-21T15:44:40.182Z,1017.72
2018-01-21T15:46:02.149Z,1017.69
2018-01-21T15:47:24.294Z,1017.67
2018-01-21T15:48:46.585Z,1017.65
2018-01-21T15:50:08.526Z,1017.69
2018-01-21T15:51:30.733Z,1017.78
2018-01-21T15:52:52.670Z,1017.8
2018-01-21T15:54:14.935Z,1017.86
2018-01-21T15:55:37.111Z,1017.87
2018-01-21T15:56:59.843Z,1017.89
2018-01-21T15:58:22.084Z,1017.91
2018-01-21T15:59:45.532Z,1017.92
2018-01-21T16:01:09.360Z,1017.97
2018-01-21T16:02:32.768Z,1018.07
2018-01-21T16:03:55.322Z,1018.07
2018-01-21T16:05:17.997Z,1018.04
2018-01-21T16:06:39.698Z,1018.08
2018-01-21T16:08:02.403Z,1018.1
2018-01-21T16:09:25.294Z,1018.05
2018-01-21T16:10:48.223Z,1018.02
2018-01-21T16:12:10.973Z,1018.03
2018-01-21T16:13:34.885Z,1018.03
2018-01-21T16:14:57.859Z,1018.03
2018-01-21T16:16:20.751Z,1017.98
2018-01-21T16:17:44.665Z,1017.91
2018-01-21T16:19:08.818Z,1017.85
2018-01-21T16:20:31.351Z,1017.76
2018-01-21T16:21:54.618Z,1017.73
2018-01-21T16:23:49.849Z,1017.74
2018-01-21T16:25:12.268Z,1017.7
2018-01-21T16:26:35.790Z,1017.69
2018-01-21T16:28:00.203Z,1017.68
2018-01-21T16:29:23.141Z,1017.68
2018-01-21T16:30:48.076Z,1017.69
2018-01-21T16:32:11.916Z,1017.63
2018-01-21T16:33:36.282Z,1017.55
2018-01-21T16:34:59.443Z,1017.44
2018-01-21T16:36:24.024Z,1017.39